Time;durP1;ratioP1;P1;durP2;ratioP2;P2;SDS_P1;SDS_P2;PMS_P1;PMS_P2;Temp;Humidity;BMP_temperature;BMP_pressure;BME280_temperature;BME280_humidity;BME280_pressure;Samples;Min_cycle;Max_cycle;Signal;HPM_P1;HPM_P2
2022/01/30 00:00:19;;;;;;;18.98;6.22;;;7.90;99.90;;;;;;5137532;27;19936;-84
2022/01/30 00:03:03;;;;;;;;;;;6.90;99.90;;;;;;5154188;27;20529;-84
2022/01/30 00:05:47;;;;;;;27.67;6.43;;;8.60;99.90;;;;;;5137980;27;20326;-84
2022/01/30 00:08:32;;;;;;;24.02;4.78;;;6.50;99.90;;;;;;5137487;27;20113;-84
2022/01/30 00:11:21;;;;;;;27.42;5.55;;;8.50;99.90;;;;;;5122883;27;20046;-84
2022/01/30 00:14:11;;;;;;;25.60;5.28;;;6.10;99.90;;;;;;5138714;27;20126;-83
2022/01/30 00:17:18;;;;;;;29.60;6.70;;;6.00;99.90;;;;;;5137877;27;20037;-84
2022/01/30 00:20:06;;;;;;;27.45;4.85;;;6.00;99.90;;;;;;5129914;27;20130;-83
2022/01/30 00:23:00;;;;;;;20.65;4.40;;;6.00;99.90;;;;;;5137757;27;20398;-84
2022/01/30 00:25:51;;;;;;;29.90;4.47;;;;;;;;;;5137830;27;20042;-84
2022/01/30 00:28:35;;;;;;;29.15;5.78;;;6.00;99.90;;;;;;5138549;27;20094;-84
2022/01/30 00:31:21;;;;;;;21.35;6.05;;;6.00;99.90;;;;;;5140878;27;20060;-84
2022/01/30 00:34:06;;;;;;;22.48;5.60;;;6.60;99.90;;;;;;5127403;27;20452;-84
2022/01/30 00:36:51;;;;;;;19.80;5.25;;;8.40;99.90;;;;;;5141092;27;20034;-83
2022/01/30 00:39:35;;;;;;;27.52;4.97;;;6.20;99.90;;;;;;5156565;27;20037;-84
2022/01/30 00:42:21;;;;;;;28.70;5.97;;;7.90;99.90;;;;;;5126471;27;20054;-85
2022/01/30 00:45:06;;;;;;;22.70;5.32;;;7.80;99.90;;;;;;5141350;27;20513;-84
2022/01/30 00:47:50;;;;;;;21.92;4.55;;;6.40;99.90;;;;;;5140994;27;20517;-83
2022/01/30 00:50:35;;;;;;;24.50;4.97;;;7.10;99.90;;;;;;5140756;27;20460;-84
2022/01/30 00:53:20;;;;;;;26.45;4.72;;;7.50;99.90;;;;;;5156777;27;20042;-84
2022/01/30 00:56:04;;;;;;;17.92;3.58;;;6.30;99.90;;;;;;5126743;27;20398;-84
2022/01/30 00:58:48;;;;;;;13.43;3.50;;;6.20;99.90;;;;;;5126833;27;20042;-84
2022/01/30 01:01:32;;;;;;;16.17;3.60;;;7.30;99.90;;;;;;5140464;27;20045;-83
2022/01/30 01:04:19;;;;;;;17.08;3.25;;;6.80;99.90;;;;;;5126619;27;20059;-83
2022/01/30 01:07:03;;;;;;;16.50;3.47;;;6.10;99.90;;;;;;5126713;27;20076;-84
2022/01/30 01:10:02;;;;;;;18.45;3.58;;;5.90;99.90;;;;;;5156446;27;20505;-83
2022/01/30 01:24:24;;;;;;;21.70;3.42;;;5.60;99.90;;;;;;5155979;27;20538;-86
2022/01/30 01:27:10;;;;;;;26.48;4.97;;;5.60;99.90;;;;;;5156432;27;20086;-83
2022/01/30 01:29:54;;;;;;;22.95;4.80;;;5.60;99.90;;;;;;5126140;27;20558;-84
2022/01/30 01:32:38;;;;;;;;;;;5.60;99.90;;;;;;5140464;27;20399;-84
2022/01/30 01:35:23;;;;;;;19.70;3.38;;;5.50;99.90;;;;;;5125957;27;19922;-84
2022/01/30 01:38:11;;;;;;;24.25;5.90;;;5.40;99.90;;;;;;5140255;27;20126;-83
2022/01/30 01:40:56;;;;;;;31.25;6.05;;;;;;;;;;5139991;27;20493;-84
2022/01/30 01:43:41;;;;;;;32.25;5.45;;;5.50;99.90;;;;;;5140000;27;20049;-83
2022/01/30 01:46:30;;;;;;;23.85;5.43;;;5.50;99.90;;;;;;5139979;27;20583;-85
2022/01/30 01:49:19;;;;;;;36.55;7.28;;;5.60;99.90;;;;;;5108982;27;20107;-83
2022/01/30 01:55:00;;;;;;;27.33;5.72;;;5.70;99.90;;;;;;5155912;27;20038;-84
2022/01/30 01:57:44;;;;;;;28.08;5.07;;;5.80;99.90;;;;;;5139561;27;20094;-84
2022/01/30 02:00:29;;;;;;;25.15;4.22;;;5.70;99.90;;;;;;5125185;27;20034;-84
2022/01/30 02:03:16;;;;;;;30.85;5.35;;;5.70;99.90;;;;;;5140089;27;20056;-83
2022/01/30 02:06:02;;;;;;;27.10;5.40;;;;;;;;;;5111776;27;20402;-84
2022/01/30 02:08:55;;;;;;;33.70;5.50;;;5.60;99.90;;;;;;5155027;27;20399;-83
2022/01/30 02:11:43;;;;;;;36.05;6.22;;;7.10;99.90;;;;;;5139319;27;20038;-83
2022/01/30 02:26:24;;;;;;;38.58;5.80;;;5.70;99.90;;;;;;5155264;27;20056;-83
2022/01/30 02:29:10;;;;;;;22.58;4.93;;;5.80;99.90;;;;;;5139412;27;20126;-83
2022/01/30 02:31:57;;;;;;;32.45;6.00;;;5.80;99.90;;;;;;5139003;27;20960;-83
2022/01/30 02:34:41;;;;;;;27.73;5.55;;;7.40;99.90;;;;;;5154357;27;20049;-83
2022/01/30 02:37:25;;;;;;;30.80;5.60;;;6.00;99.90;;;;;;5124271;27;20050;-83
2022/01/30 02:40:13;;;;;;;31.58;5.07;;;7.90;99.90;;;;;;5139300;27;20045;-84
2022/01/30 02:42:58;;;;;;;32.53;5.13;;;5.90;99.90;;;;;;5138611;27;20042;-83
2022/01/30 02:45:48;;;;;;;31.60;6.68;;;5.80;99.90;;;;;;5124012;27;20061;-83
2022/01/30 02:48:46;;;;;;;29.23;5.72;;;5.80;99.90;;;;;;5124140;27;20062;-83
2022/01/30 02:51:35;;;;;;;28.23;6.45;;;5.80;99.90;;;;;;5124877;27;20091;-83
2022/01/30 02:54:19;;;;;;;27.90;5.18;;;7.30;99.90;;;;;;5139820;27;20529;-83
2022/01/30 02:57:04;;;;;;;37.70;6.38;;;7.50;99.90;;;;;;5124395;27;20037;-83
2022/01/30 02:59:50;;;;;;;36.45;6.15;;;5.80;99.90;;;;;;5138177;27;20054;-83
2022/01/30 03:02:35;;;;;;;23.65;4.65;;;5.90;99.90;;;;;;5124593;27;20073;-83
2022/01/30 03:05:20;;;;;;;28.08;5.80;;;8.00;99.90;;;;;;5138737;27;20387;-83
2022/01/30 03:08:04;;;;;;;28.10;5.72;;;6.00;99.90;;;;;;5103569;27;20091;-83
2022/01/30 03:10:49;;;;;;;30.85;5.78;;;5.10;99.90;;;;;;5117525;27;20042;-83
2022/01/30 03:13:33;;;;;;;33.72;6.22;;;5.90;99.90;;;;;;5118012;27;20490;-83
2022/01/30 03:16:20;;;;;;;32.83;5.78;;;;;;;;;;5103589;27;20042;-83
2022/01/30 03:19:05;;;;;;;26.85;4.80;;;5.80;99.90;;;;;;5117566;27;20442;-84
2022/01/30 03:21:49;;;;;;;35.25;5.40;;;;;;;;;;5102924;27;20505;-84
2022/01/30 03:24:36;;;;;;;32.55;6.55;;;5.70;99.90;;;;;;5117995;27;20493;-83
2022/01/30 03:27:21;;;;;;;32.25;5.82;;;6.20;99.90;;;;;;5117769;27;20038;-84
2022/01/30 03:30:07;;;;;;;33.60;5.53;;;6.10;99.90;;;;;;5117265;27;20448;-83
2022/01/30 03:32:52;;;;;;;26.80;6.82;;;5.70;99.90;;;;;;5103288;28;20559;-83
2022/01/30 03:35:36;;;;;;;31.10;6.90;;;6.20;99.90;;;;;;5117827;27;20498;-83
2022/01/30 03:38:20;;;;;;;;;;;6.00;99.90;;;;;;5103516;27;20046;-83
2022/01/30 03:41:11;;;;;;;27.20;5.35;;;6.10;99.90;;;;;;5117019;28;19972;-83
2022/01/30 03:43:56;;;;;;;43.28;5.78;;;5.80;99.90;;;;;;5118087;28;20490;-83
2022/01/30 03:46:41;;;;;;;29.00;5.15;;;5.90;99.90;;;;;;5117585;28;20070;-83
2022/01/30 03:49:26;;;;;;;23.63;5.47;;;5.90;99.90;;;;;;5117556;28;20444;-83
2022/01/30 03:52:10;;;;;;;35.30;6.00;;;7.50;99.90;;;;;;5103224;28;20038;-84
2022/01/30 03:54:54;;;;;;;43.00;6.30;;;6.30;99.90;;;;;;5102620;28;20042;-83
2022/01/30 03:57:38;;;;;;;32.38;5.75;;;6.00;99.90;;;;;;5117495;28;20078;-83
2022/01/30 04:00:23;;;;;;;32.22;5.95;;;6.10;99.90;;;;;;5117572;28;20038;-83
2022/01/30 04:03:07;;;;;;;39.55;7.05;;;6.70;99.90;;;;;;5105035;27;20096;-84
2022/01/30 04:05:52;;;;;;;28.45;6.40;;;6.10;99.90;;;;;;5121004;27;20135;-84
2022/01/30 04:08:36;;;;;;;31.13;7.55;;;6.10;99.90;;;;;;5121575;27;20191;-83
2022/01/30 04:11:22;;;;;;;30.40;6.60;;;6.20;99.90;;;;;;5121261;27;20103;-83
2022/01/30 04:14:07;;;;;;;35.08;6.40;;;6.20;99.90;;;;;;5120662;27;20099;-83
2022/01/30 04:16:51;;;;;;;33.70;7.43;;;6.20;99.90;;;;;;5120879;27;20041;-84
2022/01/30 04:19:36;;;;;;;;;;;6.20;99.90;;;;;;5121169;27;20082;-82
2022/01/30 04:22:20;;;;;;;;;;;6.20;99.90;;;;;;5120862;27;20479;-83
2022/01/30 04:25:04;;;;;;;39.72;6.38;;;6.20;99.90;;;;;;5135980;27;19914;-83
2022/01/30 04:27:49;;;;;;;32.17;6.90;;;6.20;99.90;;;;;;5120956;27;20148;-85
2022/01/30 04:30:34;;;;;;;37.88;6.35;;;6.20;99.90;;;;;;5136516;27;20039;-83
2022/01/30 04:33:18;;;;;;;37.78;6.97;;;6.20;99.90;;;;;;5136499;27;20042;-83
2022/01/30 04:36:08;;;;;;;36.42;8.20;;;6.20;99.90;;;;;;5120439;27;20043;-84
2022/01/30 04:39:12;;;;;;;33.78;6.53;;;6.10;99.90;;;;;;5120025;27;20538;-85
2022/01/30 05:08:24;;;;;;;35.20;7.07;;;5.70;99.90;;;;;;5121159;27;20046;-84
2022/01/30 05:11:09;;;;;;;45.55;9.52;;;;;;;;;;5119872;27;20065;-84
2022/01/30 05:13:54;;;;;;;45.25;8.25;;;6.40;99.90;;;;;;5118603;27;20087;-84
2022/01/30 05:16:39;;;;;;;45.25;8.07;;;5.60;99.90;;;;;;5120205;27;20406;-83
2022/01/30 05:19:23;;;;;;;52.67;9.45;;;5.60;99.90;;;;;;5105503;27;20115;-83
2022/01/30 05:22:08;;;;;;;41.83;8.15;;;5.60;99.90;;;;;;5104747;27;20096;-83
2022/01/30 05:24:53;;;;;;;43.63;8.23;;;5.50;99.90;;;;;;5105615;27;20041;-83
2022/01/30 05:27:39;;;;;;;40.15;9.65;;;5.50;99.90;;;;;;5134994;27;20111;-84
2022/01/30 05:30:24;;;;;;;35.55;7.82;;;5.40;99.90;;;;;;5134914;27;20391;-83
2022/01/30 05:33:10;;;;;;;27.98;6.00;;;5.40;99.90;;;;;;5119422;27;20046;-83
2022/01/30 05:35:54;;;;;;;30.30;6.65;;;5.40;99.90;;;;;;5120287;27;20057;-84
2022/01/30 05:38:39;;;;;;;27.65;5.95;;;5.30;99.90;;;;;;5105353;27;20104;-84
2022/01/30 05:41:24;;;;;;;27.90;5.65;;;5.30;99.90;;;;;;5104834;27;20088;-84
2022/01/30 05:44:13;;;;;;;38.20;6.28;;;5.20;99.90;;;;;;5119175;27;20033;-84
2022/01/30 05:47:01;;;;;;;35.45;6.45;;;5.20;99.90;;;;;;5119695;27;20053;-84
2022/01/30 05:49:47;;;;;;;40.03;7.68;;;6.30;99.90;;;;;;5119889;27;20058;-83
2022/01/30 05:52:31;;;;;;;40.00;7.43;;;7.20;99.90;;;;;;5119514;27;20494;-84
2022/01/30 05:55:16;;;;;;;41.63;8.27;;;5.50;99.90;;;;;;5118872;27;20034;-84
2022/01/30 05:58:00;;;;;;;45.40;8.93;;;5.30;99.90;;;;;;5119463;27;20066;-83
2022/01/30 06:00:44;;;;;;;35.72;7.65;;;5.40;99.90;;;;;;5119468;27;20083;-83
2022/01/30 06:03:29;;;;;;;;;;;5.90;99.90;;;;;;5105156;27;20123;-84
2022/01/30 06:06:13;;;;;;;;;;;6.30;99.90;;;;;;5119135;27;20382;-84
2022/01/30 06:09:11;;;;;;;49.92;8.57;;;5.50;99.90;;;;;;5119282;27;20386;-84
2022/01/30 06:11:55;;;;;;;45.15;8.57;;;7.00;99.90;;;;;;5106706;27;20046;-83
2022/01/30 06:14:40;;;;;;;37.22;7.35;;;5.90;99.90;;;;;;5104958;27;20037;-83
2022/01/30 06:17:25;;;;;;;44.90;7.30;;;;;;;;;;5103972;27;20042;-83
2022/01/30 06:20:10;;;;;;;52.00;10.05;;;5.70;99.90;;;;;;5133894;27;20084;-84
2022/01/30 06:22:54;;;;;;;43.58;7.40;;;5.70;99.90;;;;;;5134614;27;20038;-84
2022/01/30 06:25:39;;;;;;;43.20;7.47;;;6.80;99.90;;;;;;5104658;27;20122;-84
2022/01/30 06:28:23;;;;;;;;;;;5.70;99.90;;;;;;5134165;27;20050;-84
2022/01/30 06:31:07;;;;;;;35.92;7.03;;;5.80;99.90;;;;;;5134008;27;20432;-85
2022/01/30 06:33:51;;;;;;;42.50;10.07;;;7.30;99.90;;;;;;5104430;27;20077;-84
2022/01/30 06:36:35;;;;;;;44.15;7.85;;;7.40;99.90;;;;;;5133126;27;20540;-84
2022/01/30 06:39:19;;;;;;;41.33;6.68;;;5.80;99.90;;;;;;5103251;27;20097;-84
2022/01/30 06:42:04;;;;;;;40.45;8.00;;;5.80;99.90;;;;;;5134110;27;20037;-83
2022/01/30 06:44:49;;;;;;;35.97;6.95;;;5.80;99.90;;;;;;5133985;27;20038;-84
2022/01/30 06:47:43;;;;;;;46.45;7.85;;;6.10;99.90;;;;;;5104320;27;20039;-84
2022/01/30 06:50:27;;;;;;;37.78;8.45;;;5.70;99.90;;;;;;5103375;27;20054;-84
2022/01/30 06:53:12;;;;;;;50.92;8.73;;;5.70;99.90;;;;;;5117912;27;20034;-85
2022/01/30 06:55:56;;;;;;;46.38;8.00;;;5.80;99.90;;;;;;5118170;27;20042;-83
2022/01/30 06:58:40;;;;;;;;;;;6.10;99.90;;;;;;5141814;27;20067;-84
2022/01/30 07:01:25;;;;;;;42.28;7.78;;;5.80;99.90;;;;;;5135780;27;19918;-84
2022/01/30 07:04:10;;;;;;;42.00;8.38;;;5.80;99.90;;;;;;5152948;27;20033;-84
2022/01/30 07:06:54;;;;;;;45.33;9.07;;;5.90;99.90;;;;;;5124266;27;20119;-83
2022/01/30 07:09:39;;;;;;;41.47;8.10;;;5.80;99.90;;;;;;5138543;27;20045;-83
2022/01/30 07:12:23;;;;;;;;;;;5.90;99.90;;;;;;5138455;27;20152;-83
2022/01/30 07:15:08;;;;;;;40.05;7.53;;;5.90;99.90;;;;;;5138079;27;19929;-83
2022/01/30 07:17:52;;;;;;;38.70;7.35;;;5.90;99.90;;;;;;5123874;27;20087;-83
2022/01/30 07:20:36;;;;;;;42.88;7.28;;;7.00;99.90;;;;;;5137825;27;20057;-83
2022/01/30 07:23:20;;;;;;;39.38;6.97;;;6.80;99.90;;;;;;5122709;27;20397;-83
2022/01/30 07:26:05;;;;;;;48.58;8.43;;;6.50;99.90;;;;;;5154049;27;20038;-84
2022/01/30 07:28:49;;;;;;;42.65;7.43;;;6.10;99.90;;;;;;5138353;27;20091;-83
2022/01/30 07:31:33;;;;;;;;;;;6.60;99.90;;;;;;5138008;27;20174;-84
2022/01/30 07:34:21;;;;;;;41.50;9.07;;;6.10;99.90;;;;;;5137381;27;20378;-84
2022/01/30 07:37:05;;;;;;;49.22;10.02;;;6.10;99.90;;;;;;5137815;27;20038;-84
2022/01/30 07:39:50;;;;;;;48.05;8.68;;;6.10;99.90;;;;;;5137863;27;20049;-82
2022/01/30 07:42:34;;;;;;;44.92;7.85;;;7.20;99.90;;;;;;5137674;27;20056;-81
2022/01/30 07:45:19;;;;;;;50.40;9.20;;;7.80;99.90;;;;;;5123004;27;20087;-83
2022/01/30 07:48:03;;;;;;;;;;;6.70;99.90;;;;;;5154051;27;20182;-81
2022/01/30 07:50:47;;;;;;;40.55;7.47;;;6.00;99.90;;;;;;5123521;27;20042;-82
2022/01/30 07:53:32;;;;;;;39.65;8.68;;;6.70;99.90;;;;;;5122563;27;20042;-82
2022/01/30 07:56:16;;;;;;;35.90;7.03;;;6.00;99.90;;;;;;5138036;27;20034;-82
2022/01/30 07:59:00;;;;;;;;;;;6.00;99.90;;;;;;5123940;27;20053;-82
2022/01/30 08:01:46;;;;;;;29.67;7.65;;;6.10;99.90;;;;;;5137677;27;20403;-82
2022/01/30 08:04:30;;;;;;;38.15;7.28;;;5.90;99.90;;;;;;5122070;27;20076;-82
2022/01/30 08:07:14;;;;;;;;;;;6.00;99.90;;;;;;5153484;27;20045;-83
2022/01/30 08:09:59;;;;;;;30.80;7.60;;;6.10;99.90;;;;;;5137632;27;19918;-83
2022/01/30 08:12:43;;;;;;;35.40;7.43;;;6.00;99.90;;;;;;5137285;27;20057;-86
2022/01/30 08:15:28;;;;;;;42.53;6.80;;;6.00;99.90;;;;;;5108455;27;20034;-83
2022/01/30 08:18:12;;;;;;;42.40;7.22;;;6.00;99.90;;;;;;5134487;27;20153;-84
2022/01/30 08:20:56;;;;;;;28.02;6.90;;;6.00;99.90;;;;;;5137788;27;20042;-84
2022/01/30 08:23:41;;;;;;;30.55;6.07;;;6.00;99.90;;;;;;5108224;27;20790;-84
2022/01/30 08:26:25;;;;;;;;;;;6.00;99.90;;;;;;5137753;27;20058;-85
2022/01/30 08:29:09;;;;;;;34.10;6.78;;;6.90;99.90;;;;;;5137434;27;19917;-84
2022/01/30 08:31:55;;;;;;;38.45;8.43;;;5.50;99.90;;;;;;5123256;27;20038;-84
2022/01/30 08:34:40;;;;;;;33.83;7.15;;;6.00;99.90;;;;;;5121549;27;20141;-84
2022/01/30 08:37:24;;;;;;;36.88;6.57;;;6.00;99.90;;;;;;5136755;27;20041;-85
2022/01/30 08:40:14;;;;;;;31.45;6.13;;;6.10;99.90;;;;;;5122656;27;20096;-85
2022/01/30 08:42:58;;;;;;;36.25;8.15;;;6.10;99.90;;;;;;5143648;27;20036;-84
2022/01/30 08:45:43;;;;;;;41.13;7.30;;;6.20;99.90;;;;;;5102499;27;20041;-84
2022/01/30 08:48:28;;;;;;;;;;;6.10;99.90;;;;;;5136434;27;20110;-86
2022/01/30 08:51:12;;;;;;;44.17;8.50;;;6.20;99.90;;;;;;5141060;27;20047;-83
2022/01/30 08:53:56;;;;;;;39.08;9.40;;;6.70;99.90;;;;;;5141323;27;20046;-84
2022/01/30 08:56:40;;;;;;;;;;;6.00;99.90;;;;;;5156885;27;20037;-84
2022/01/30 08:59:24;;;;;;;41.30;7.18;;;6.10;99.90;;;;;;5141143;27;20286;-84
2022/01/30 09:02:09;;;;;;;33.67;6.78;;;6.20;99.90;;;;;;5141350;27;20045;-84
2022/01/30 09:04:53;;;;;;;40.33;7.53;;;6.80;99.90;;;;;;5157832;27;20102;-83
2022/01/30 09:07:38;;;;;;;42.28;9.52;;;6.30;99.90;;;;;;5141340;27;20037;-84
2022/01/30 09:10:23;;;;;;;49.17;10.52;;;6.40;99.90;;;;;;5140993;27;20176;-84
2022/01/30 09:13:08;;;;;;;42.08;7.10;;;6.40;99.90;;;;;;5126681;27;20443;-84
2022/01/30 09:15:57;;;;;;;40.25;7.63;;;6.30;99.90;;;;;;5140241;27;20499;-84
2022/01/30 09:18:41;;;;;;;37.60;7.10;;;6.30;99.90;;;;;;5140097;27;20161;-82
2022/01/30 09:21:28;;;;;;;34.63;6.70;;;6.30;99.90;;;;;;5156294;27;20087;-84
2022/01/30 09:24:14;;;;;;;37.10;7.25;;;6.30;99.90;;;;;;5140661;27;20054;-85
2022/01/30 09:26:58;;;;;;;36.53;8.18;;;6.30;99.90;;;;;;5137250;27;20038;-85
2022/01/30 09:29:43;;;;;;;38.03;8.23;;;7.40;99.90;;;;;;5120843;27;20081;-85
2022/01/30 09:32:28;;;;;;;39.83;7.38;;;6.60;99.90;;;;;;5156126;27;20058;-85
2022/01/30 09:35:12;;;;;;;40.20;7.47;;;6.60;99.90;;;;;;5128216;27;20084;-89
2022/01/30 09:37:57;;;;;;;40.97;8.80;;;8.10;99.90;;;;;;5110473;27;20064;-84
2022/01/30 09:40:42;;;;;;;42.95;9.13;;;6.50;99.90;;;;;;5139815;27;20521;-85
2022/01/30 09:43:27;;;;;;;35.17;7.18;;;6.50;99.90;;;;;;5125877;27;20181;-84
2022/01/30 09:46:11;;;;;;;40.67;7.90;;;6.70;99.90;;;;;;5155978;27;20038;-85
2022/01/30 09:48:57;;;;;;;36.92;7.05;;;6.80;99.90;;;;;;5110584;27;20061;-84
2022/01/30 09:51:45;;;;;;;43.10;7.60;;;6.90;99.90;;;;;;5150612;27;20122;-83
2022/01/30 09:54:29;;;;;;;46.75;8.07;;;6.90;99.90;;;;;;5134316;27;20117;-82
2022/01/30 09:57:14;;;;;;;;;;;6.80;99.90;;;;;;5120938;27;20115;-84
2022/01/30 09:59:58;;;;;;;41.00;7.53;;;7.00;99.90;;;;;;5136659;27;19926;-84
2022/01/30 10:02:43;;;;;;;;;;;6.60;99.90;;;;;;5120914;27;20045;-85
2022/01/30 10:05:32;;;;;;;36.53;7.60;;;6.70;99.90;;;;;;5139333;27;19914;-85
2022/01/30 10:08:28;;;;;;;38.13;7.40;;;6.70;99.90;;;;;;5155550;27;20447;-83
2022/01/30 10:11:29;;;;;;;38.92;6.90;;;6.90;99.90;;;;;;5138922;27;20348;-84
2022/01/30 10:14:14;;;;;;;30.42;6.55;;;7.00;99.90;;;;;;5135746;27;20042;-83
2022/01/30 10:16:58;;;;;;;30.33;5.93;;;7.00;99.90;;;;;;5123683;27;20211;-83
2022/01/30 10:19:43;;;;;;;30.60;5.88;;;7.00;99.90;;;;;;5119374;27;20164;-84
2022/01/30 10:22:27;;;;;;;36.47;6.78;;;7.00;99.90;;;;;;5120231;27;20086;-84
2022/01/30 10:25:20;;;;;;;33.78;7.15;;;7.10;99.90;;;;;;5134357;27;21330;-85
2022/01/30 10:28:13;;;;;;;32.92;5.65;;;7.10;99.90;;;;;;5119511;27;20045;-85
2022/01/30 10:31:02;;;;;;;35.50;5.82;;;7.10;99.90;;;;;;5136463;27;20541;-85
2022/01/30 10:33:50;;;;;;;34.10;6.65;;;7.20;99.90;;;;;;5137689;27;20026;-85
2022/01/30 10:36:34;;;;;;;37.00;6.03;;;7.40;99.90;;;;;;5125961;27;20057;-85
2022/01/30 10:39:23;;;;;;;37.47;6.90;;;7.50;99.90;;;;;;5153948;27;20065;-85
2022/01/30 10:42:38;;;;;;;32.75;7.47;;;7.50;99.90;;;;;;5138347;27;20115;-86
2022/01/30 10:45:29;;;;;;;34.38;7.03;;;7.50;99.90;;;;;;5154006;27;20030;-85
2022/01/30 10:48:17;;;;;;;37.72;8.18;;;7.40;99.90;;;;;;5154746;27;20620;-84
2022/01/30 10:51:11;;;;;;;47.35;7.85;;;7.40;99.90;;;;;;5133147;27;20796;-86
2022/01/30 10:54:13;;;;;;;35.10;7.80;;;7.80;99.90;;;;;;5135878;27;20033;-84
2022/01/30 10:57:09;;;;;;;39.55;8.52;;;7.60;99.90;;;;;;5137911;27;20137;-85
2022/01/30 10:59:56;;;;;;;38.65;6.95;;;7.30;99.90;;;;;;5153918;27;20077;-84
2022/01/30 11:02:40;;;;;;;34.97;7.97;;;7.20;99.90;;;;;;5139174;27;20037;-84
2022/01/30 11:05:24;;;;;;;;;;;7.10;99.90;;;;;;5139070;27;20033;-84
2022/01/30 11:08:22;;;;;;;36.42;7.50;;;7.20;99.90;;;;;;5137991;27;19934;-84
2022/01/30 11:17:05;;;;;;;34.50;5.95;;;7.30;99.90;;;;;;5153632;27;20083;-85
2022/01/30 11:19:52;;;;;;;36.65;7.57;;;7.30;99.90;;;;;;5137876;27;20505;-85
2022/01/30 11:22:38;;;;;;;31.80;6.28;;;7.30;99.90;;;;;;5138390;27;20394;-84
2022/01/30 11:25:24;;;;;;;33.20;6.03;;;7.60;99.90;;;;;;5153961;27;20167;-84
2022/01/30 11:28:10;;;;;;;37.75;6.28;;;7.40;99.90;;;;;;5137729;27;20095;-84
2022/01/30 11:30:55;;;;;;;36.30;6.03;;;7.50;99.90;;;;;;5138460;27;20037;-84
2022/01/30 11:33:40;;;;;;;31.88;5.80;;;8.50;99.90;;;;;;5153941;27;20135;-84
2022/01/30 11:36:25;;;;;;;35.13;7.10;;;7.60;99.90;;;;;;5138149;27;20087;-85
2022/01/30 11:39:19;;;;;;;28.38;6.65;;;7.60;99.90;;;;;;5137711;27;20118;-84
2022/01/30 11:42:09;;;;;;;31.02;8.30;;;7.80;99.90;;;;;;5137842;27;20037;-85
2022/01/30 11:45:16;;;;;;;31.55;5.65;;;7.70;99.90;;;;;;5137499;27;20163;-85
2022/01/30 11:48:12;;;;;;;32.78;6.95;;;7.50;99.90;;;;;;5137609;27;20436;-84
2022/01/30 11:51:03;;;;;;;37.67;7.22;;;7.40;99.90;;;;;;5137628;27;20081;-84
2022/01/30 11:53:47;;;;;;;41.03;7.03;;;7.30;99.90;;;;;;5138248;27;20061;-84
2022/01/30 11:56:31;;;;;;;;;;;7.30;99.90;;;;;;5154191;27;20159;-84
2022/01/30 11:59:36;;;;;;;38.08;6.57;;;7.30;99.90;;;;;;5153326;27;20014;-84
2022/01/30 12:02:35;;;;;;;27.25;5.50;;;7.40;99.90;;;;;;5153674;27;20084;-84
2022/01/30 12:05:35;;;;;;;30.98;6.70;;;7.60;99.90;;;;;;5138066;27;20149;-84
2022/01/30 12:08:41;;;;;;;33.55;6.28;;;7.50;99.90;;;;;;5154061;27;20042;-85
2022/01/30 12:11:38;;;;;;;30.95;6.15;;;7.60;99.90;;;;;;5135107;27;20482;-86
2022/01/30 12:14:22;;;;;;;36.25;7.40;;;7.70;99.90;;;;;;5153385;27;20444;-85
2022/01/30 12:17:06;;;;;;;33.55;6.40;;;7.70;99.90;;;;;;5153069;27;20546;-84
2022/01/30 12:19:53;;;;;;;;;;;7.60;99.90;;;;;;5117403;27;20127;-84
2022/01/30 12:22:39;;;;;;;27.13;6.07;;;7.60;99.90;;;;;;5152861;27;19994;-84
2022/01/30 12:25:30;;;;;;;34.35;6.18;;;7.50;99.90;;;;;;5155047;27;20038;-83
2022/01/30 12:28:14;;;;;;;33.25;5.88;;;7.40;99.90;;;;;;5156837;27;21026;-84
2022/01/30 12:30:58;;;;;;;;;;;7.40;99.90;;;;;;5141512;27;20079;-82
2022/01/30 12:33:43;;;;;;;35.83;6.70;;;7.30;99.90;;;;;;5141431;27;19922;-85
2022/01/30 12:36:28;;;;;;;44.05;7.43;;;7.40;99.90;;;;;;5141219;27;20038;-84
2022/01/30 12:39:32;;;;;;;37.60;8.45;;;7.40;99.90;;;;;;5140828;27;20068;-86
2022/01/30 12:42:18;;;;;;;33.53;7.57;;;7.30;99.90;;;;;;5141004;27;20191;-84
2022/01/30 12:45:06;;;;;;;36.53;7.90;;;7.30;99.90;;;;;;5140897;27;20045;-84
2022/01/30 12:47:59;;;;;;;27.05;6.32;;;7.30;99.90;;;;;;5141430;27;20042;-85
2022/01/30 12:50:46;;;;;;;42.90;6.60;;;7.20;99.90;;;;;;5141885;27;20081;-84
2022/01/30 12:53:36;;;;;;;45.10;7.20;;;7.30;99.90;;;;;;5157215;27;20045;-85
2022/01/30 12:56:22;;;;;;;49.22;7.20;;;7.30;99.90;;;;;;5140967;27;20038;-85
2022/01/30 12:59:07;;;;;;;38.03;6.00;;;7.40;99.90;;;;;;5140826;27;20125;-85
2022/01/30 13:01:52;;;;;;;39.00;6.93;;;7.90;99.90;;;;;;5141201;27;20037;-84
2022/01/30 13:04:36;;;;;;;35.33;6.32;;;7.40;99.90;;;;;;5157010;27;20033;-84
2022/01/30 13:07:20;;;;;;;32.15;6.65;;;7.30;99.90;;;;;;5156414;27;20041;-85
2022/01/30 13:10:13;;;;;;;40.63;6.00;;;8.30;99.90;;;;;;5140712;27;20046;-85
2022/01/30 13:12:59;;;;;;;37.38;6.85;;;7.00;99.90;;;;;;5141119;27;20091;-85
2022/01/30 13:15:56;;;;;;;40.47;7.35;;;6.90;99.90;;;;;;5140903;27;20042;-84
2022/01/30 13:18:43;;;;;;;36.03;7.35;;;6.90;99.90;;;;;;5140800;27;20087;-84
2022/01/30 13:21:30;;;;;;;33.83;7.45;;;7.50;99.90;;;;;;5126569;27;20046;-85
2022/01/30 13:24:19;;;;;;;29.77;6.05;;;7.40;99.90;;;;;;5156326;27;20035;-84
2022/01/30 13:27:05;;;;;;;35.03;5.32;;;7.10;99.90;;;;;;5156393;27;20053;-85
2022/01/30 13:29:53;;;;;;;31.55;5.63;;;7.20;99.90;;;;;;5140976;27;20077;-85
2022/01/30 13:32:39;;;;;;;26.05;5.50;;;7.20;99.90;;;;;;5140851;27;20103;-85
2022/01/30 13:35:25;;;;;;;21.85;4.57;;;7.90;99.90;;;;;;5125333;27;20065;-85
2022/01/30 13:38:10;;;;;;;20.23;4.65;;;7.30;98.90;;;;;;5140483;27;20041;-85
2022/01/30 13:40:59;;;;;;;30.45;6.28;;;7.30;98.60;;;;;;5156618;27;20073;-84
2022/01/30 13:43:54;;;;;;;27.63;5.68;;;7.30;98.20;;;;;;5141502;27;20143;-85
2022/01/30 13:46:57;;;;;;;32.10;5.85;;;7.30;98.40;;;;;;5142377;27;20059;-85
2022/01/30 13:49:49;;;;;;;28.67;6.90;;;7.60;98.80;;;;;;5143183;27;20053;-84
2022/01/30 13:52:33;;;;;;;26.80;7.20;;;6.80;98.70;;;;;;5127264;27;20528;-85
2022/01/30 13:55:17;;;;;;;;;;;6.90;99.00;;;;;;5156220;27;20095;-85
2022/01/30 13:58:02;;;;;;;23.58;5.93;;;7.30;98.70;;;;;;5126029;27;19917;-84
2022/01/30 14:00:47;;;;;;;32.33;6.28;;;7.10;99.50;;;;;;5140471;27;20406;-85
2022/01/30 14:03:32;;;;;;;25.02;5.22;;;6.70;99.70;;;;;;5155892;27;20375;-84
2022/01/30 14:06:25;;;;;;;25.25;5.93;;;6.60;99.80;;;;;;5139931;27;20054;-84
2022/01/30 14:09:12;;;;;;;29.25;5.05;;;6.70;99.90;;;;;;5155610;27;20122;-85
2022/01/30 14:12:02;;;;;;;32.53;5.22;;;7.00;99.90;;;;;;5156024;27;20125;-84
2022/01/30 14:15:06;;;;;;;28.45;5.40;;;6.80;99.90;;;;;;5155773;27;20082;-85
2022/01/30 14:18:28;;;;;;;29.98;6.25;;;6.80;99.90;;;;;;5125951;27;20034;-84
2022/01/30 14:21:17;;;;;;;27.08;5.70;;;6.90;99.90;;;;;;5051312;28;20105;-84
2022/01/30 14:24:24;;;;;;;29.60;6.55;;;6.80;99.80;;;;;;5139951;27;20034;-84
2022/01/30 14:27:12;;;;;;;26.70;5.50;;;6.80;99.70;;;;;;5152764;27;20073;-84
2022/01/30 14:30:04;;;;;;;42.78;6.03;;;7.70;99.90;;;;;;5155676;27;20079;-84
2022/01/30 14:32:48;;;;;;;35.78;5.30;;;6.80;99.90;;;;;;5140528;27;20084;-84
2022/01/30 14:35:36;;;;;;;34.50;5.80;;;6.70;99.80;;;;;;5155006;27;20558;-84
2022/01/30 14:38:21;;;;;;;34.00;5.65;;;6.70;99.90;;;;;;5154762;27;20082;-84
2022/01/30 14:41:05;;;;;;;28.52;6.35;;;7.30;99.90;;;;;;5155476;27;20450;-84
2022/01/30 14:43:49;;;;;;;30.40;5.63;;;6.70;99.90;;;;;;5125112;27;20042;-84
2022/01/30 14:46:33;;;;;;;;;;;6.60;99.90;;;;;;5154305;27;20049;-84
2022/01/30 14:49:18;;;;;;;26.48;4.53;;;6.70;99.90;;;;;;5154874;27;19922;-84
2022/01/30 14:52:03;;;;;;;28.67;5.82;;;7.30;99.90;;;;;;5155159;27;20099;-84
2022/01/30 14:54:48;;;;;;;26.92;5.05;;;6.60;99.90;;;;;;5139489;27;20389;-84
2022/01/30 14:57:32;;;;;;;29.08;5.13;;;6.60;99.90;;;;;;5154582;27;20041;-84
2022/01/30 15:00:18;;;;;;;;;;;6.60;99.90;;;;;;5154824;27;20141;-85
2022/01/30 15:03:04;;;;;;;28.63;6.30;;;6.50;99.90;;;;;;5139228;27;20009;-84
2022/01/30 15:05:48;;;;;;;25.38;5.68;;;6.50;99.90;;;;;;5154849;27;20123;-85
2022/01/30 15:08:33;;;;;;;28.23;4.85;;;7.70;99.90;;;;;;5138609;27;20147;-84
2022/01/30 15:11:17;;;;;;;26.60;5.53;;;6.50;99.90;;;;;;5154210;27;20104;-85
2022/01/30 15:14:02;;;;;;;26.13;5.78;;;6.50;99.90;;;;;;5155612;27;20038;-83
2022/01/30 15:16:49;;;;;;;33.78;6.40;;;6.60;99.90;;;;;;5140236;27;20177;-84
2022/01/30 15:19:34;;;;;;;34.72;6.97;;;6.90;99.90;;;;;;5139016;27;20402;-83
2022/01/30 15:22:18;;;;;;;;;;;6.50;99.90;;;;;;5138921;27;20079;-86
2022/01/30 15:25:03;;;;;;;31.23;5.38;;;6.50;99.90;;;;;;5138842;27;20291;-83
2022/01/30 15:27:47;;;;;;;25.08;4.88;;;6.40;99.90;;;;;;5124266;27;20038;-84
2022/01/30 15:30:32;;;;;;;28.80;5.35;;;6.40;99.90;;;;;;5138675;27;20057;-84
2022/01/30 15:33:16;;;;;;;27.00;7.00;;;6.40;99.90;;;;;;5138735;27;20597;-84
2022/01/30 15:36:00;;;;;;;;;;;6.40;99.90;;;;;;5139223;27;20513;-84
2022/01/30 15:38:45;;;;;;;27.52;5.43;;;6.40;99.90;;;;;;5153904;27;20014;-84